createdAt,value
2023-05-18T00:01:35.538Z,8.00
2023-05-18T00:04:07.235Z,9.18
2023-05-18T00:06:37.933Z,9.55
2023-05-18T00:09:09.196Z,9.20
2023-05-18T00:11:42.299Z,9.23
2023-05-18T00:14:13.157Z,9.63
2023-05-18T00:16:43.725Z,9.20
2023-05-18T00:19:18.402Z,9.52
2023-05-18T00:21:50.250Z,9.40
2023-05-18T00:26:52.681Z,7.75
2023-05-18T00:29:25.065Z,7.63
2023-05-18T00:31:56.358Z,9.40
2023-05-18T00:34:28.047Z,8.50
2023-05-18T00:36:58.936Z,7.10
2023-05-18T00:39:30.008Z,6.97
2023-05-18T00:42:01.126Z,7.55
2023-05-18T00:44:38.536Z,7.75
2023-05-18T00:47:10.830Z,6.75
2023-05-18T00:49:45.171Z,6.97
2023-05-18T00:52:16.761Z,7.50
2023-05-18T00:54:48.440Z,11.80
2023-05-18T00:57:21.355Z,11.32
2023-05-18T00:59:53.129Z,13.25
2023-05-18T01:02:25.165Z,11.88
2023-05-18T01:04:56.472Z,14.85
2023-05-18T01:07:27.925Z,13.02
2023-05-18T01:09:59.196Z,13.15
2023-05-18T01:12:42.195Z,12.07
2023-05-18T01:15:18.786Z,10.88
2023-05-18T01:18:06.400Z,12.35
2023-05-18T01:20:41.634Z,11.10
2023-05-18T01:23:18.939Z,9.43
2023-05-18T01:25:56.175Z,13.32
2023-05-18T01:28:31.151Z,11.13
2023-05-18T01:31:02.044Z,19.85
2023-05-18T01:33:35.071Z,15.00
2023-05-18T01:36:05.740Z,15.65
2023-05-18T01:38:36.840Z,10.80
2023-05-18T01:41:28.258Z,10.70
2023-05-18T01:44:05.838Z,10.25
2023-05-18T01:47:05.206Z,10.23
2023-05-18T01:50:13.406Z,20.88
2023-05-18T01:52:46.169Z,14.52
2023-05-18T01:55:18.686Z,15.07
2023-05-18T02:00:20.959Z,14.88
2023-05-18T02:02:51.812Z,16.55
2023-05-18T02:05:22.261Z,17.33
2023-05-18T02:07:52.696Z,27.27
2023-05-18T02:10:23.047Z,22.48
2023-05-18T02:12:54.909Z,7.53
2023-05-18T02:15:25.026Z,12.18
2023-05-18T02:17:59.249Z,11.02
2023-05-18T02:20:33.851Z,13.45
2023-05-18T02:23:03.883Z,14.50
2023-05-18T02:25:33.789Z,10.52
2023-05-18T02:28:04.178Z,12.00
2023-05-18T02:30:35.625Z,19.83
2023-05-18T02:33:06.177Z,11.65
2023-05-18T02:35:37.144Z,4.57
2023-05-18T02:38:07.544Z,4.10
2023-05-18T02:40:37.735Z,6.05
2023-05-18T02:43:08.049Z,7.13
2023-05-18T02:45:38.101Z,7.03
2023-05-18T02:48:08.594Z,8.27
2023-05-18T02:50:38.605Z,7.57
2023-05-18T02:53:09.142Z,6.57
2023-05-18T02:55:39.673Z,5.93
2023-05-18T02:58:17.764Z,6.85
2023-05-18T03:01:10.813Z,9.20
2023-05-18T03:03:46.504Z,10.98
2023-05-18T03:06:17.263Z,8.80
2023-05-18T03:08:50.160Z,7.05
2023-05-18T03:11:20.264Z,12.15
2023-05-18T03:13:50.905Z,7.72
2023-05-18T03:16:20.946Z,6.13
2023-05-18T03:18:51.338Z,6.05
2023-05-18T03:21:23.012Z,6.28
2023-05-18T03:23:53.552Z,7.95
2023-05-18T03:26:27.213Z,9.00
2023-05-18T03:28:57.693Z,8.65
2023-05-18T03:31:28.145Z,9.70
2023-05-18T03:34:00.664Z,8.35
2023-05-18T03:36:31.106Z,8.23
2023-05-18T03:39:01.619Z,7.20
2023-05-18T03:41:32.979Z,6.32
2023-05-18T03:44:04.152Z,8.73
2023-05-18T03:46:34.319Z,5.18
2023-05-18T03:49:06.145Z,5.30
2023-05-18T03:51:42.563Z,4.72
2023-05-18T03:54:13.834Z,4.28
2023-05-18T03:56:44.328Z,6.05
2023-05-18T03:59:14.570Z,9.20
2023-05-18T04:01:45.589Z,10.40
2023-05-18T04:04:19.159Z,7.95
2023-05-18T04:06:50.510Z,8.50
2023-05-18T04:09:21.894Z,12.23
2023-05-18T04:11:52.371Z,13.07
2023-05-18T04:14:25.764Z,9.27
2023-05-18T04:16:59.415Z,7.22
2023-05-18T04:19:29.428Z,7.75
2023-05-18T04:21:59.989Z,6.72
2023-05-18T04:24:29.947Z,7.50
2023-05-18T04:27:02.026Z,6.47
2023-05-18T04:29:32.231Z,6.18
2023-05-18T04:32:02.762Z,6.15
2023-05-18T04:34:32.901Z,6.72
2023-05-18T04:37:07.046Z,9.48
2023-05-18T04:39:40.558Z,8.68
2023-05-18T04:42:15.767Z,10.77
2023-05-18T04:44:46.605Z,9.48
2023-05-18T04:47:17.072Z,10.57
2023-05-18T04:49:47.234Z,4.75
2023-05-18T04:52:17.812Z,4.72
2023-05-18T04:54:47.799Z,4.55
2023-05-18T04:57:18.328Z,7.75
2023-05-18T04:59:48.545Z,8.15
2023-05-18T05:02:19.320Z,11.63
2023-05-18T05:04:49.955Z,8.38
2023-05-18T05:07:20.359Z,7.10
2023-05-18T05:09:50.151Z,8.48
2023-05-18T05:12:20.674Z,5.07
2023-05-18T05:14:50.790Z,4.63
2023-05-18T05:17:24.209Z,6.35
2023-05-18T05:19:54.216Z,4.47
2023-05-18T05:22:25.417Z,3.78
2023-05-18T05:24:55.540Z,3.08
2023-05-18T05:27:27.347Z,2.92
2023-05-18T05:29:57.897Z,5.50
2023-05-18T05:32:28.226Z,5.53
2023-05-18T05:34:58.808Z,5.15
2023-05-18T05:37:29.916Z,5.90
2023-05-18T05:40:01.248Z,6.30
2023-05-18T05:42:34.316Z,6.57
2023-05-18T05:45:05.793Z,6.72
2023-05-18T05:47:41.129Z,7.05
2023-05-18T05:50:11.996Z,6.75
2023-05-18T05:52:42.254Z,6.88
2023-05-18T05:55:13.451Z,6.63
2023-05-18T05:57:44.039Z,9.27
2023-05-18T06:00:14.966Z,13.48
2023-05-18T06:02:50.907Z,16.92
2023-05-18T06:05:38.920Z,11.45
2023-05-18T06:08:11.837Z,9.40
2023-05-18T06:10:43.118Z,13.20
2023-05-18T06:13:14.149Z,12.80
2023-05-18T06:15:51.147Z,20.00
2023-05-18T06:18:21.267Z,15.27
2023-05-18T06:20:52.964Z,11.57
2023-05-18T06:23:24.851Z,10.73
2023-05-18T06:26:04.667Z,9.90
2023-05-18T06:28:46.647Z,9.65
2023-05-18T06:31:37.346Z,14.85
2023-05-18T06:34:37.105Z,10.60
2023-05-18T06:37:08.451Z,11.88
2023-05-18T06:39:38.480Z,10.48
2023-05-18T06:42:09.167Z,10.40
2023-05-18T06:44:46.290Z,7.57
2023-05-18T06:47:21.734Z,8.15
2023-05-18T06:49:52.365Z,8.07
2023-05-18T06:52:26.371Z,11.45
2023-05-18T06:54:58.230Z,7.90
2023-05-18T06:57:29.355Z,9.07
2023-05-18T07:00:00.184Z,8.45
2023-05-18T07:02:31.976Z,6.90
2023-05-18T07:05:02.740Z,6.65
2023-05-18T07:07:33.336Z,4.50
2023-05-18T07:10:04.995Z,9.95
2023-05-18T07:12:35.380Z,11.45
2023-05-18T07:15:05.600Z,13.18
2023-05-18T07:17:36.096Z,11.60
2023-05-18T07:20:09.754Z,7.18
2023-05-18T07:22:40.435Z,5.50
2023-05-18T07:25:10.941Z,5.68
2023-05-18T07:27:41.504Z,3.97
2023-05-18T07:30:14.882Z,4.25
2023-05-18T07:32:46.477Z,7.80
2023-05-18T07:35:18.133Z,8.52
2023-05-18T07:37:48.981Z,5.90
2023-05-18T07:40:19.453Z,9.45
2023-05-18T07:42:49.967Z,5.35
2023-05-18T07:45:19.953Z,9.00
2023-05-18T07:47:50.438Z,4.95
2023-05-18T07:50:20.499Z,4.45
2023-05-18T07:52:50.849Z,4.97
2023-05-18T07:55:21.055Z,4.55
2023-05-18T07:57:51.490Z,5.95
2023-05-18T08:00:21.824Z,5.93
2023-05-18T08:02:52.545Z,6.70
2023-05-18T08:05:23.867Z,6.80
2023-05-18T08:07:54.328Z,6.47
2023-05-18T08:10:24.442Z,5.47
2023-05-18T08:12:54.802Z,4.88
2023-05-18T08:15:24.796Z,5.45
2023-05-18T08:17:56.122Z,6.70
2023-05-18T08:20:27.232Z,6.80
2023-05-18T08:22:58.464Z,6.30
2023-05-18T08:25:28.671Z,6.40
2023-05-18T08:27:59.159Z,5.80
2023-05-18T08:30:29.131Z,4.93
2023-05-18T08:32:59.684Z,5.57
2023-05-18T08:35:29.933Z,4.70
2023-05-18T08:38:00.644Z,5.97
2023-05-18T08:40:39.005Z,6.00
2023-05-18T08:43:23.766Z,6.43
2023-05-18T08:46:11.397Z,6.40
2023-05-18T08:48:46.829Z,6.18
2023-05-18T08:51:21.994Z,13.00
2023-05-18T08:53:55.679Z,12.68
2023-05-18T08:56:27.725Z,6.53
2023-05-18T08:59:00.925Z,4.97
2023-05-18T09:01:31.443Z,3.92
2023-05-18T09:04:02.564Z,4.32
2023-05-18T09:06:36.962Z,4.32
2023-05-18T09:09:07.717Z,5.93
2023-05-18T09:11:37.867Z,6.00
2023-05-18T09:14:08.349Z,9.10
2023-05-18T09:16:38.454Z,21.98
2023-05-18T09:19:08.902Z,13.50
2023-05-18T09:21:39.056Z,5.93
2023-05-18T09:24:10.025Z,7.63
2023-05-18T09:26:40.297Z,4.43
2023-05-18T09:29:22.221Z,4.68
2023-05-18T09:31:53.133Z,4.15
2023-05-18T09:34:23.898Z,5.15
2023-05-18T09:36:54.225Z,4.55
2023-05-18T09:39:24.632Z,4.13
2023-05-18T09:42:00.611Z,6.47
2023-05-18T09:44:37.625Z,5.30
2023-05-18T09:47:11.844Z,3.55
2023-05-18T09:49:42.695Z,4.43
2023-05-18T09:52:13.060Z,5.15
2023-05-18T09:54:43.980Z,8.15
2023-05-18T09:57:15.395Z,7.43
2023-05-18T09:59:46.681Z,8.80
2023-05-18T10:02:18.379Z,9.20
2023-05-18T10:04:49.047Z,4.82
2023-05-18T10:07:19.399Z,5.22
2023-05-18T10:10:03.609Z,5.20
2023-05-18T10:12:33.941Z,4.90
2023-05-18T10:15:04.294Z,5.63
2023-05-18T10:17:35.362Z,7.82
2023-05-18T10:20:10.255Z,10.13
2023-05-18T10:22:41.516Z,9.13
2023-05-18T10:25:12.850Z,8.65
2023-05-18T10:27:45.833Z,7.50
2023-05-18T10:30:18.781Z,7.07
2023-05-18T10:32:49.962Z,6.57
2023-05-18T10:35:20.919Z,5.32
2023-05-18T10:37:54.243Z,5.20
2023-05-18T10:40:25.575Z,4.63
2023-05-18T10:43:01.999Z,4.45
2023-05-18T10:45:36.972Z,4.43
2023-05-18T10:48:11.024Z,3.88
2023-05-18T10:50:42.832Z,4.32
2023-05-18T10:53:14.431Z,6.88
2023-05-18T10:55:44.947Z,6.55
2023-05-18T10:58:17.825Z,6.38
2023-05-18T11:01:00.182Z,6.35
2023-05-18T11:03:30.642Z,6.30
2023-05-18T11:06:11.574Z,6.18
2023-05-18T11:09:00.629Z,6.07
2023-05-18T11:11:31.631Z,6.85
2023-05-18T11:14:03.590Z,7.35
2023-05-18T11:16:38.273Z,7.47
2023-05-18T11:19:10.404Z,8.13
2023-05-18T11:21:42.786Z,9.38
2023-05-18T11:24:20.509Z,9.10
2023-05-18T11:26:56.305Z,10.75
2023-05-18T11:29:43.418Z,10.35
2023-05-18T11:32:34.180Z,11.98
2023-05-18T11:35:06.909Z,10.57
2023-05-18T11:37:40.480Z,11.70
2023-05-18T11:40:15.281Z,11.45
2023-05-18T11:42:59.212Z,12.93
2023-05-18T11:45:29.320Z,13.13
2023-05-18T11:48:04.713Z,12.90
2023-05-18T11:50:35.316Z,11.63
2023-05-18T11:53:05.710Z,9.07
2023-05-18T11:55:44.999Z,24.15
2023-05-18T11:58:20.167Z,18.08
2023-05-18T12:00:53.659Z,13.88
2023-05-18T12:03:31.400Z,12.50
2023-05-18T12:06:02.996Z,10.88
2023-05-18T12:08:34.281Z,9.73
2023-05-18T12:11:04.666Z,9.27
2023-05-18T12:13:35.508Z,8.55
2023-05-18T12:16:09.904Z,8.68
2023-05-18T12:18:41.006Z,9.60
2023-05-18T12:21:11.064Z,8.38
2023-05-18T12:23:41.969Z,9.23
2023-05-18T12:26:11.998Z,11.18
2023-05-18T12:28:42.521Z,10.00
2023-05-18T12:31:13.769Z,9.60
2023-05-18T12:33:45.141Z,9.88
2023-05-18T12:36:16.140Z,9.30
2023-05-18T12:38:58.993Z,9.35
2023-05-18T12:41:29.522Z,9.68
2023-05-18T12:44:00.066Z,9.52
2023-05-18T12:46:30.216Z,9.63
2023-05-18T12:49:02.738Z,9.52
2023-05-18T12:51:37.300Z,8.32
2023-05-18T12:54:08.767Z,7.63
2023-05-18T12:57:03.241Z,8.07
2023-05-18T12:59:33.681Z,8.20
2023-05-18T13:02:04.472Z,7.88
2023-05-18T13:04:36.656Z,8.05
2023-05-18T13:07:06.971Z,7.55
2023-05-18T13:09:37.544Z,7.32
2023-05-18T13:12:08.295Z,6.13
2023-05-18T13:14:42.618Z,6.50
2023-05-18T13:17:12.899Z,6.07
2023-05-18T13:19:43.339Z,5.25
2023-05-18T13:22:17.286Z,6.57
2023-05-18T13:24:47.867Z,5.78
2023-05-18T13:27:17.701Z,5.90
2023-05-18T13:29:48.096Z,6.05
2023-05-18T13:32:18.107Z,5.65
2023-05-18T13:34:48.548Z,6.03
2023-05-18T13:37:18.490Z,5.80
2023-05-18T13:39:48.895Z,5.93
2023-05-18T13:42:22.258Z,5.70
2023-05-18T13:44:52.713Z,5.10
2023-05-18T13:47:22.716Z,5.20
2023-05-18T13:49:53.088Z,5.85
2023-05-18T13:52:23.083Z,5.13
2023-05-18T13:54:53.924Z,5.00
2023-05-18T13:57:25.226Z,5.72
2023-05-18T13:59:56.126Z,5.50
2023-05-18T14:02:29.087Z,5.13
2023-05-18T14:05:00.215Z,5.47
2023-05-18T14:07:30.508Z,5.38
2023-05-18T14:10:01.184Z,4.97
2023-05-18T14:12:31.575Z,5.35
2023-05-18T14:15:02.456Z,5.53
2023-05-18T14:17:33.856Z,5.70
2023-05-18T14:20:06.964Z,5.43
2023-05-18T14:22:37.543Z,5.60
2023-05-18T14:25:08.565Z,5.55
2023-05-18T14:27:38.922Z,5.70
2023-05-18T14:30:10.183Z,5.03
2023-05-18T14:32:40.520Z,4.53
2023-05-18T14:35:11.711Z,4.93
2023-05-18T14:37:42.533Z,5.53
2023-05-18T14:40:13.598Z,5.50
2023-05-18T14:42:43.953Z,5.53
2023-05-18T14:45:14.738Z,5.65
2023-05-18T14:47:45.222Z,5.25
2023-05-18T14:50:16.060Z,5.82
2023-05-18T14:52:46.379Z,5.53
2023-05-18T14:55:17.225Z,5.22
2023-05-18T14:57:47.872Z,6.03
2023-05-18T15:00:18.837Z,5.88
2023-05-18T15:02:49.080Z,6.78
2023-05-18T15:05:19.624Z,6.82
2023-05-18T15:07:49.744Z,7.05
2023-05-18T15:10:22.043Z,6.75
2023-05-18T15:12:52.193Z,6.50
2023-05-18T15:15:23.672Z,7.00
2023-05-18T15:17:55.326Z,6.57
2023-05-18T15:20:25.830Z,7.07
2023-05-18T15:22:55.840Z,6.97
2023-05-18T15:25:26.263Z,6.70
2023-05-18T15:27:56.082Z,6.78
2023-05-18T15:30:26.686Z,6.88
2023-05-18T15:32:57.344Z,6.55
2023-05-18T15:35:27.794Z,5.97
2023-05-18T15:37:58.351Z,6.22
2023-05-18T15:40:28.807Z,6.70
2023-05-18T15:42:59.019Z,5.72
2023-05-18T15:45:29.524Z,5.53
2023-05-18T15:47:59.692Z,6.25
2023-05-18T15:50:30.407Z,5.65
2023-05-18T15:53:00.528Z,5.20
2023-05-18T15:55:30.941Z,5.53
2023-05-18T15:58:01.711Z,5.03
2023-05-18T16:00:33.444Z,5.57
2023-05-18T16:03:04.831Z,4.45
2023-05-18T16:08:05.479Z,4.30
2023-05-18T16:10:35.834Z,4.35
2023-05-18T16:13:07.039Z,3.70
2023-05-18T16:15:37.988Z,4.20
2023-05-18T16:18:08.400Z,3.60
2023-05-18T16:20:39.454Z,3.75
2023-05-18T16:23:09.480Z,3.78
2023-05-18T16:25:40.016Z,3.47
2023-05-18T16:28:09.969Z,3.63
2023-05-18T16:30:40.365Z,3.72
2023-05-18T16:33:10.272Z,3.88
2023-05-18T16:35:40.787Z,3.45
2023-05-18T16:38:10.855Z,3.75
2023-05-18T16:40:41.651Z,4.00
2023-05-18T16:43:11.737Z,4.53
2023-05-18T16:45:42.519Z,4.38
2023-05-18T16:48:12.689Z,4.30
2023-05-18T16:50:43.153Z,4.35
2023-05-18T16:53:13.376Z,4.50
2023-05-18T16:55:43.834Z,4.20
2023-05-18T16:58:13.865Z,3.47
2023-05-18T17:00:44.304Z,3.90
2023-05-18T17:03:14.616Z,3.58
2023-05-18T17:05:45.429Z,3.83
2023-05-18T17:08:16.185Z,4.05
2023-05-18T17:10:46.616Z,3.83
2023-05-18T17:13:16.637Z,3.88
2023-05-18T17:15:47.112Z,3.33
2023-05-18T17:18:17.539Z,3.53
2023-05-18T17:20:48.007Z,3.88
2023-05-18T17:23:19.910Z,3.75
2023-05-18T17:25:50.542Z,3.83
2023-05-18T17:28:25.094Z,3.35
2023-05-18T17:30:55.481Z,3.63
2023-05-18T17:33:25.482Z,4.13
2023-05-18T17:35:56.025Z,3.60
2023-05-18T17:38:26.131Z,3.80
2023-05-18T17:40:56.639Z,3.63
2023-05-18T17:43:26.866Z,3.70
2023-05-18T17:45:57.495Z,4.13
2023-05-18T17:48:27.470Z,3.45
2023-05-18T17:50:57.909Z,4.18
2023-05-18T17:53:27.968Z,4.57
2023-05-18T17:55:58.651Z,4.80
2023-05-18T17:58:28.609Z,4.93
2023-05-18T18:00:59.091Z,4.40
2023-05-18T18:03:29.396Z,5.05
2023-05-18T18:05:59.961Z,4.45
2023-05-18T18:08:31.457Z,4.80
2023-05-18T18:11:02.075Z,5.68
2023-05-18T18:13:32.423Z,5.13
2023-05-18T18:16:03.065Z,5.30
2023-05-18T18:18:33.775Z,5.38
2023-05-18T18:21:04.931Z,5.90
2023-05-18T18:23:36.202Z,5.80
2023-05-18T18:26:07.545Z,5.53
2023-05-18T18:28:37.635Z,5.80
2023-05-18T18:31:08.236Z,6.43
2023-05-18T18:33:38.352Z,5.28
2023-05-18T18:36:09.145Z,5.85
2023-05-18T18:38:39.137Z,6.28
2023-05-18T18:41:09.813Z,6.30
2023-05-18T18:43:40.973Z,6.05
2023-05-18T18:46:11.609Z,6.65
2023-05-18T18:48:41.680Z,6.53
2023-05-18T18:51:12.037Z,6.38
2023-05-18T18:53:42.162Z,6.57
2023-05-18T18:56:12.673Z,6.32
2023-05-18T18:58:43.254Z,6.63
2023-05-18T19:01:13.378Z,6.90
2023-05-18T19:03:45.026Z,6.68
2023-05-18T19:06:15.969Z,6.63
2023-05-18T19:08:46.448Z,7.00
2023-05-18T19:11:16.461Z,6.80
2023-05-18T19:13:47.045Z,6.40
2023-05-18T19:16:18.620Z,6.57
2023-05-18T19:18:49.189Z,6.75
2023-05-18T19:21:19.152Z,6.50
2023-05-18T19:23:49.706Z,6.65
2023-05-18T19:26:19.976Z,6.45
2023-05-18T19:28:50.365Z,6.53
2023-05-18T19:31:20.302Z,6.53
2023-05-18T19:33:51.386Z,6.57
2023-05-18T19:36:21.392Z,6.78
2023-05-18T19:38:54.186Z,6.85
2023-05-18T19:41:25.024Z,6.53
2023-05-18T19:43:55.563Z,6.97
2023-05-18T19:46:25.584Z,6.25
2023-05-18T19:48:56.561Z,7.35
2023-05-18T19:51:26.791Z,7.10
2023-05-18T19:53:57.271Z,7.05
2023-05-18T19:56:27.378Z,7.05
2023-05-18T19:58:58.956Z,7.10
2023-05-18T20:01:29.259Z,6.75
2023-05-18T20:04:01.108Z,7.07
2023-05-18T20:06:32.879Z,7.38
2023-05-18T20:11:35.815Z,8.30
2023-05-18T20:14:05.615Z,9.13
2023-05-18T20:16:40.448Z,9.00
2023-05-18T20:19:11.303Z,9.73
2023-05-18T20:21:42.384Z,8.75
2023-05-18T20:24:12.330Z,8.43
2023-05-18T20:26:42.793Z,10.35
2023-05-18T20:29:12.876Z,13.98
2023-05-18T20:31:43.213Z,17.33
2023-05-18T20:34:13.215Z,14.43
2023-05-18T20:36:43.673Z,12.40
2023-05-18T20:39:13.901Z,11.68
2023-05-18T20:41:44.391Z,10.95
2023-05-18T20:44:18.821Z,10.68
2023-05-18T20:46:49.196Z,8.90
2023-05-18T20:49:19.186Z,8.85
2023-05-18T20:51:50.869Z,11.02
2023-05-18T20:54:22.339Z,11.52
2023-05-18T20:56:52.991Z,10.75
2023-05-18T20:59:23.099Z,10.43
2023-05-18T21:01:53.862Z,10.73
2023-05-18T21:04:24.359Z,9.32
2023-05-18T21:06:54.785Z,10.20
2023-05-18T21:09:24.765Z,9.60
2023-05-18T21:11:55.142Z,9.27
2023-05-18T21:14:25.181Z,9.63
2023-05-18T21:16:55.635Z,10.68
2023-05-18T21:19:25.739Z,9.20
2023-05-18T21:21:56.117Z,8.90
2023-05-18T21:24:26.117Z,8.95
2023-05-18T21:26:57.141Z,10.45
2023-05-18T21:29:27.310Z,13.00
2023-05-18T21:31:58.049Z,14.93
2023-05-18T21:34:28.202Z,15.10
2023-05-18T21:36:59.004Z,13.50
2023-05-18T21:39:28.923Z,15.18
2023-05-18T21:41:59.401Z,14.70
2023-05-18T21:44:29.393Z,12.55
2023-05-18T21:46:59.914Z,12.35
2023-05-18T21:49:29.926Z,13.20
2023-05-18T21:52:00.626Z,14.13
2023-05-18T21:54:32.795Z,12.85
2023-05-18T21:57:03.906Z,11.73
2023-05-18T21:59:34.485Z,13.43
2023-05-18T22:02:04.417Z,17.40
2023-05-18T22:04:35.430Z,13.73
2023-05-18T22:07:07.205Z,14.10
2023-05-18T22:09:37.643Z,15.65
2023-05-18T22:12:08.217Z,16.50
2023-05-18T22:14:38.194Z,17.20
2023-05-18T22:17:08.601Z,13.75
2023-05-18T22:19:38.823Z,11.90
2023-05-18T22:22:13.798Z,13.02
2023-05-18T22:24:48.878Z,11.00
2023-05-18T22:27:19.253Z,10.18
2023-05-18T22:29:49.208Z,10.48
2023-05-18T22:32:20.446Z,10.15
2023-05-18T22:34:50.603Z,10.57
2023-05-18T22:37:20.978Z,10.85
2023-05-18T22:39:50.994Z,10.32
2023-05-18T22:42:21.397Z,10.65
2023-05-18T22:44:52.371Z,9.82
2023-05-18T22:47:24.771Z,11.13
2023-05-18T22:49:54.712Z,18.80
2023-05-18T22:52:25.154Z,18.58
2023-05-18T22:54:55.618Z,17.42
2023-05-18T22:57:25.966Z,19.10
2023-05-18T22:59:55.988Z,13.57
2023-05-18T23:02:26.977Z,13.65
2023-05-18T23:04:57.170Z,14.68
2023-05-18T23:07:27.704Z,16.65
2023-05-18T23:09:57.821Z,16.38
2023-05-18T23:12:28.659Z,16.48
2023-05-18T23:14:59.485Z,17.02
2023-05-18T23:17:30.874Z,16.35
2023-05-18T23:20:04.011Z,15.18
2023-05-18T23:22:35.978Z,13.35
2023-05-18T23:25:09.670Z,15.23
2023-05-18T23:27:40.166Z,16.73
2023-05-18T23:30:10.545Z,19.52
2023-05-18T23:32:41.464Z,18.67
2023-05-18T23:35:14.046Z,15.80
2023-05-18T23:37:44.700Z,15.05
2023-05-18T23:40:18.014Z,15.05
2023-05-18T23:42:48.628Z,15.00
2023-05-18T23:45:19.167Z,20.10
2023-05-18T23:47:49.999Z,19.05
2023-05-18T23:50:20.601Z,17.38
2023-05-18T23:52:55.465Z,19.13
2023-05-18T23:55:28.017Z,18.00
2023-05-18T23:57:59.705Z,18.40
